createdAt,value
2018-07-07T00:00:43.053Z,2.30
2018-07-07T00:02:47.986Z,2.57
2018-07-07T00:04:53.005Z,3.03
2018-07-07T00:06:58.559Z,3.00
2018-07-07T00:09:03.724Z,3.30
2018-07-07T00:11:08.747Z,3.13
2018-07-07T00:13:14.043Z,2.30
2018-07-07T00:15:20.410Z,2.60
2018-07-07T00:17:25.492Z,3.30
2018-07-07T00:19:30.313Z,3.13
2018-07-07T00:21:35.265Z,3.07
2018-07-07T00:23:40.185Z,3.47
2018-07-07T00:25:44.996Z,2.67
2018-07-07T00:27:50.596Z,3.23
2018-07-07T00:29:55.578Z,2.97
2018-07-07T00:32:00.642Z,3.00
2018-07-07T00:34:05.629Z,3.10
2018-07-07T00:36:10.625Z,4.17
2018-07-07T00:38:15.716Z,3.43
2018-07-07T00:40:20.574Z,2.90
2018-07-07T00:42:25.572Z,3.50
2018-07-07T00:44:30.981Z,3.40
2018-07-07T00:46:36.227Z,3.10
2018-07-07T00:48:41.413Z,2.50
2018-07-07T00:50:46.354Z,2.80
2018-07-07T00:52:51.287Z,2.80
2018-07-07T00:54:56.594Z,2.90
2018-07-07T00:57:01.525Z,2.97
2018-07-07T00:59:06.338Z,2.60
2018-07-07T01:01:11.494Z,2.40
2018-07-07T01:03:16.549Z,2.83
2018-07-07T01:05:35.801Z,2.70
2018-07-07T01:07:40.801Z,2.40
2018-07-07T01:09:45.728Z,2.53
2018-07-07T01:11:50.784Z,2.80
2018-07-07T01:13:58.724Z,2.63
2018-07-07T01:16:03.766Z,2.80
2018-07-07T01:18:09.126Z,2.70
2018-07-07T01:20:14.135Z,2.60
2018-07-07T01:22:19.064Z,2.50
2018-07-07T01:24:24.022Z,2.50
2018-07-07T01:26:29.151Z,2.20
2018-07-07T01:28:33.877Z,2.50
2018-07-07T01:30:38.992Z,2.20
2018-07-07T01:32:44.032Z,2.17
2018-07-07T01:34:49.165Z,2.40
2018-07-07T01:36:54.281Z,2.20
2018-07-07T01:38:59.076Z,2.10
2018-07-07T01:41:04.000Z,2.70
2018-07-07T01:43:08.651Z,1.53
2018-07-07T01:45:13.406Z,2.20
2018-07-07T01:47:18.146Z,1.57
2018-07-07T01:49:23.020Z,1.80
2018-07-07T01:51:27.982Z,2.10
2018-07-07T01:53:32.885Z,1.73
2018-07-07T01:55:37.994Z,2.20
2018-07-07T01:57:42.849Z,2.13
2018-07-07T01:59:47.627Z,1.90
2018-07-07T02:01:52.673Z,1.60
2018-07-07T02:03:57.633Z,1.63
2018-07-07T02:06:02.570Z,1.30
2018-07-07T02:08:07.886Z,1.70
2018-07-07T02:10:12.916Z,1.90
2018-07-07T02:12:17.861Z,1.60
2018-07-07T02:14:22.670Z,1.50
2018-07-07T02:16:27.632Z,1.30
2018-07-07T02:18:32.552Z,1.97
2018-07-07T02:20:37.852Z,1.40
2018-07-07T02:22:43.070Z,2.03
2018-07-07T02:24:48.183Z,1.30
2018-07-07T02:26:53.195Z,1.47
2018-07-07T02:28:58.191Z,1.50
2018-07-07T02:31:02.993Z,1.87
2018-07-07T02:33:07.977Z,1.50
2018-07-07T02:35:12.958Z,1.30
2018-07-07T02:37:17.801Z,1.80
2018-07-07T02:39:22.838Z,1.30
2018-07-07T02:41:27.726Z,1.70
2018-07-07T02:43:32.635Z,1.50
2018-07-07T02:45:37.689Z,2.00
2018-07-07T02:47:42.466Z,1.30
2018-07-07T02:49:47.347Z,1.50
2018-07-07T02:51:52.197Z,1.37
2018-07-07T02:53:57.451Z,1.60
2018-07-07T02:56:02.169Z,1.43
2018-07-07T02:58:06.972Z,1.23
2018-07-07T03:00:11.877Z,1.50
2018-07-07T03:02:16.678Z,1.70
2018-07-07T03:04:21.500Z,1.60
2018-07-07T03:06:26.347Z,1.30
2018-07-07T03:08:31.138Z,1.63
2018-07-07T03:10:35.925Z,1.60
2018-07-07T03:12:40.681Z,2.10
2018-07-07T03:14:45.650Z,1.70
2018-07-07T03:16:50.578Z,2.00
2018-07-07T03:18:55.728Z,1.87
2018-07-07T03:21:00.796Z,2.20
2018-07-07T03:23:05.825Z,1.30
2018-07-07T03:25:11.023Z,1.70
2018-07-07T03:27:15.831Z,1.67
2018-07-07T03:29:20.679Z,1.40
2018-07-07T03:31:25.469Z,1.77
2018-07-07T03:33:30.222Z,1.60
2018-07-07T03:35:35.296Z,1.60
2018-07-07T03:37:40.206Z,1.70
2018-07-07T03:39:45.007Z,1.70
2018-07-07T03:41:49.864Z,2.23
2018-07-07T03:43:54.760Z,1.60
2018-07-07T03:45:59.554Z,1.40
2018-07-07T03:48:04.439Z,1.90
2018-07-07T03:50:09.300Z,1.80
2018-07-07T03:52:14.383Z,1.33
2018-07-07T03:54:19.307Z,1.33
2018-07-07T03:56:24.331Z,1.30
2018-07-07T03:58:29.272Z,1.60
2018-07-07T04:00:34.042Z,1.60
2018-07-07T04:02:38.941Z,1.40
2018-07-07T04:04:43.858Z,1.60
2018-07-07T04:06:48.760Z,1.27
2018-07-07T04:08:53.505Z,1.43
2018-07-07T04:10:58.515Z,1.60
2018-07-07T04:13:03.281Z,1.90
2018-07-07T04:15:08.176Z,1.00
2018-07-07T04:17:12.922Z,1.20
2018-07-07T04:19:17.767Z,1.40
2018-07-07T04:21:22.557Z,1.10
2018-07-07T04:23:27.325Z,1.50
2018-07-07T04:25:32.227Z,1.70
2018-07-07T04:27:37.140Z,1.30
2018-07-07T04:29:41.837Z,1.40
2018-07-07T04:31:46.723Z,1.40
2018-07-07T04:33:51.478Z,1.50
2018-07-07T04:35:56.412Z,1.07
2018-07-07T04:38:01.129Z,1.50
2018-07-07T04:40:05.916Z,1.23
2018-07-07T04:42:12.512Z,1.17
2018-07-07T04:44:17.399Z,1.70
2018-07-07T04:46:22.230Z,1.23
2018-07-07T04:48:27.017Z,1.50
2018-07-07T04:50:31.821Z,1.70
2018-07-07T04:52:36.742Z,1.23
2018-07-07T04:54:41.642Z,1.50
2018-07-07T04:56:46.447Z,1.83
2018-07-07T04:58:51.246Z,1.07
2018-07-07T05:00:56.513Z,1.60
2018-07-07T05:03:01.813Z,1.60
2018-07-07T05:05:06.839Z,1.70
2018-07-07T05:07:11.801Z,1.57
2018-07-07T05:09:16.651Z,1.47
2018-07-07T05:11:21.553Z,1.90
2018-07-07T05:13:26.460Z,1.63
2018-07-07T05:15:31.282Z,1.30
2018-07-07T05:17:36.214Z,1.17
2018-07-07T05:19:41.117Z,2.10
2018-07-07T05:21:45.939Z,1.57
2018-07-07T05:23:50.899Z,1.30
2018-07-07T05:25:56.848Z,2.00
2018-07-07T05:28:03.126Z,1.57
2018-07-07T05:30:10.292Z,1.40
2018-07-07T05:32:15.100Z,1.20
2018-07-07T05:34:19.936Z,1.10
2018-07-07T05:36:24.814Z,1.20
2018-07-07T05:38:29.555Z,1.33
2018-07-07T05:40:35.073Z,1.50
2018-07-07T05:42:40.056Z,1.30
2018-07-07T05:44:45.056Z,1.63
2018-07-07T05:46:49.954Z,1.17
2018-07-07T05:48:55.537Z,1.37
2018-07-07T05:51:00.493Z,1.60
2018-07-07T05:53:05.413Z,1.30
2018-07-07T05:55:10.519Z,1.50
2018-07-07T05:57:15.471Z,1.57
2018-07-07T05:59:20.317Z,1.30
2018-07-07T06:01:25.414Z,1.40
2018-07-07T06:03:30.568Z,1.00
2018-07-07T06:05:36.294Z,1.33
2018-07-07T06:07:41.268Z,1.53
2018-07-07T06:09:47.278Z,1.63
2018-07-07T06:11:53.649Z,1.30
2018-07-07T06:13:58.820Z,1.10
2018-07-07T06:16:03.788Z,1.87
2018-07-07T06:18:08.453Z,1.33
2018-07-07T06:20:13.787Z,1.53
2018-07-07T06:22:19.023Z,1.20
2018-07-07T06:24:24.166Z,1.23
2018-07-07T06:26:29.210Z,1.90
2018-07-07T06:28:34.110Z,1.53
2018-07-07T06:30:39.144Z,1.10
2018-07-07T06:32:44.123Z,1.67
2018-07-07T06:34:49.387Z,1.37
2018-07-07T06:36:55.559Z,1.13
2018-07-07T06:39:00.899Z,0.97
2018-07-07T06:41:06.059Z,1.10
2018-07-07T06:43:11.161Z,1.70
2018-07-07T06:45:16.258Z,1.90
2018-07-07T06:47:21.512Z,1.20
2018-07-07T06:49:27.187Z,1.10
2018-07-07T06:51:55.695Z,1.27
2018-07-07T06:54:01.142Z,1.57
2018-07-07T06:56:06.359Z,0.90
2018-07-07T06:58:11.564Z,1.07
2018-07-07T07:00:16.667Z,1.37
2018-07-07T07:02:21.662Z,1.10
2018-07-07T07:04:26.669Z,0.93
2018-07-07T07:06:31.889Z,0.80
2018-07-07T07:08:36.613Z,1.33
2018-07-07T07:10:41.477Z,0.97
2018-07-07T07:12:46.546Z,1.30
2018-07-07T07:14:52.480Z,1.40
2018-07-07T07:16:58.314Z,0.80
2018-07-07T07:19:03.481Z,0.80
2018-07-07T07:21:08.599Z,0.70
2018-07-07T07:23:13.689Z,0.90
2018-07-07T07:25:18.634Z,1.20
2018-07-07T07:27:30.057Z,0.90
2018-07-07T07:29:35.299Z,0.93
2018-07-07T07:31:40.768Z,1.30
2018-07-07T07:33:47.176Z,0.77
2018-07-07T07:35:52.757Z,1.00
2018-07-07T07:37:58.418Z,0.90
2018-07-07T07:40:03.636Z,0.87
2018-07-07T07:42:08.771Z,0.97
2018-07-07T07:44:13.559Z,0.73
2018-07-07T07:46:18.980Z,1.00
2018-07-07T07:48:24.083Z,1.00
2018-07-07T07:50:29.225Z,1.00
2018-07-07T07:52:34.022Z,1.27
2018-07-07T07:54:39.159Z,1.10
2018-07-07T07:56:45.200Z,0.87
2018-07-07T07:58:50.103Z,1.03
2018-07-07T08:00:55.998Z,0.90
2018-07-07T08:03:08.659Z,0.90
2018-07-07T08:05:13.748Z,0.93
2018-07-07T08:07:19.216Z,0.90
2018-07-07T08:09:24.691Z,0.70
2018-07-07T08:11:30.878Z,1.00
2018-07-07T08:13:35.975Z,0.70
2018-07-07T08:15:40.971Z,0.60
2018-07-07T08:17:45.821Z,0.90
2018-07-07T08:19:52.416Z,0.67
2018-07-07T08:21:57.361Z,0.67
2018-07-07T08:24:02.274Z,0.93
2018-07-07T08:26:07.248Z,0.93
2018-07-07T08:28:12.362Z,1.00
2018-07-07T08:30:17.355Z,1.03
2018-07-07T08:32:22.789Z,1.03
2018-07-07T08:34:28.323Z,1.00
2018-07-07T08:36:33.312Z,1.17
2018-07-07T08:38:39.022Z,0.90
2018-07-07T08:40:44.027Z,1.43
2018-07-07T08:42:49.206Z,1.03
2018-07-07T08:44:54.306Z,1.43
2018-07-07T08:46:59.342Z,1.50
2018-07-07T08:49:04.262Z,1.37
2018-07-07T08:51:09.445Z,1.17
2018-07-07T08:53:15.474Z,1.60
2018-07-07T08:55:24.005Z,1.33
2018-07-07T08:57:29.092Z,0.90
2018-07-07T08:59:34.245Z,1.20
2018-07-07T09:01:39.593Z,1.70
2018-07-07T09:03:44.708Z,1.43
2018-07-07T09:05:53.270Z,1.63
2018-07-07T09:07:59.939Z,1.63
2018-07-07T09:10:05.907Z,1.30
2018-07-07T09:12:13.111Z,1.17
2018-07-07T09:14:20.896Z,1.00
2018-07-07T09:16:26.573Z,1.10
2018-07-07T09:18:32.312Z,1.30
2018-07-07T09:20:41.177Z,1.50
2018-07-07T09:22:46.584Z,1.20
2018-07-07T09:24:51.703Z,1.03
2018-07-07T09:26:57.089Z,1.40
2018-07-07T09:29:02.327Z,1.30
2018-07-07T09:31:08.642Z,1.40
2018-07-07T09:33:14.783Z,1.13
2018-07-07T09:35:20.461Z,1.53
2018-07-07T09:37:26.834Z,1.17
2018-07-07T09:39:32.131Z,1.33
2018-07-07T09:41:37.457Z,1.10
2018-07-07T09:43:42.344Z,1.37
2018-07-07T09:45:48.980Z,1.40
2018-07-07T09:47:54.157Z,1.50
2018-07-07T09:49:59.141Z,1.73
2018-07-07T09:52:05.447Z,1.60
2018-07-07T09:54:11.042Z,1.93
2018-07-07T09:56:16.744Z,1.93
2018-07-07T09:58:21.715Z,2.20
2018-07-07T10:00:31.692Z,1.60
2018-07-07T10:02:36.791Z,1.50
2018-07-07T10:04:42.101Z,1.30
2018-07-07T10:06:47.567Z,1.63
2018-07-07T10:08:52.795Z,1.53
2018-07-07T10:11:15.754Z,1.30
2018-07-07T10:13:20.564Z,2.00
2018-07-07T10:15:26.517Z,2.00
2018-07-07T10:17:35.913Z,1.50
2018-07-07T10:19:40.851Z,1.67
2018-07-07T10:21:46.019Z,2.00
2018-07-07T10:23:50.915Z,2.20
2018-07-07T10:25:56.750Z,2.10
2018-07-07T10:28:01.660Z,2.57
2018-07-07T10:30:06.565Z,1.90
2018-07-07T10:32:11.635Z,1.90
2018-07-07T10:34:16.430Z,2.87
2018-07-07T10:36:21.433Z,2.47
2018-07-07T10:38:27.443Z,2.60
2018-07-07T10:40:32.446Z,2.90
2018-07-07T10:42:37.491Z,2.23
2018-07-07T10:44:42.742Z,2.30
2018-07-07T10:46:47.714Z,2.63
2018-07-07T10:48:52.679Z,2.00
2018-07-07T10:50:57.533Z,2.70
2018-07-07T10:53:02.436Z,2.00
2018-07-07T10:55:07.457Z,2.60
2018-07-07T10:57:12.500Z,2.53
2018-07-07T10:59:17.272Z,2.30
2018-07-07T11:01:22.132Z,2.13
2018-07-07T11:03:26.840Z,2.33
2018-07-07T11:05:40.795Z,1.70
2018-07-07T11:07:45.887Z,1.23
2018-07-07T11:09:50.633Z,1.87
2018-07-07T11:11:55.510Z,2.17
2018-07-07T11:14:00.880Z,3.80
2018-07-07T11:16:05.984Z,2.23
2018-07-07T11:18:10.869Z,1.70
2018-07-07T11:20:17.234Z,1.97
2018-07-07T11:22:25.183Z,1.40
2018-07-07T11:24:30.675Z,1.50
2018-07-07T11:26:36.203Z,1.53
2018-07-07T11:28:41.288Z,1.43
2018-07-07T11:30:46.277Z,1.77
2018-07-07T11:32:54.183Z,1.33
2018-07-07T11:34:59.115Z,1.10
2018-07-07T11:37:03.986Z,1.80
2018-07-07T11:39:09.938Z,1.80
2018-07-07T11:41:25.378Z,1.23
2018-07-07T11:43:32.144Z,1.70
2018-07-07T11:47:56.381Z,1.80
2018-07-07T11:52:18.131Z,1.90
2018-07-07T11:54:27.708Z,2.00
2018-07-07T11:56:32.585Z,2.70
2018-07-07T11:58:39.364Z,1.50
2018-07-07T12:00:44.466Z,1.53
2018-07-07T12:02:49.509Z,1.70
2018-07-07T12:04:54.392Z,1.70
2018-07-07T12:06:59.484Z,1.47
2018-07-07T12:09:05.289Z,1.43
2018-07-07T12:11:10.247Z,1.90
2018-07-07T12:13:15.066Z,1.27
2018-07-07T12:15:20.066Z,1.40
2018-07-07T12:17:24.783Z,1.30
2018-07-07T12:19:29.863Z,1.53
2018-07-07T12:21:34.765Z,1.63
2018-07-07T12:23:44.236Z,1.40
2018-07-07T12:25:49.527Z,1.30
2018-07-07T12:27:54.527Z,1.60
2018-07-07T12:29:59.292Z,1.47
2018-07-07T12:32:04.379Z,1.10
2018-07-07T12:34:09.427Z,1.60
2018-07-07T12:36:14.812Z,0.90
2018-07-07T12:38:19.994Z,1.27
2018-07-07T12:40:24.852Z,1.10
2018-07-07T12:42:29.901Z,1.27
2018-07-07T12:44:34.811Z,1.70
2018-07-07T12:46:39.593Z,1.40
2018-07-07T12:48:44.815Z,1.27
2018-07-07T12:50:51.455Z,1.30
2018-07-07T12:52:56.692Z,1.20
2018-07-07T12:55:02.519Z,0.90
2018-07-07T12:57:08.614Z,1.50
2018-07-07T12:59:13.941Z,1.47
2018-07-07T13:01:23.138Z,1.40
2018-07-07T13:03:28.287Z,1.23
2018-07-07T13:05:34.168Z,1.87
2018-07-07T13:07:39.331Z,1.40
2018-07-07T13:09:44.589Z,1.33
2018-07-07T13:11:50.000Z,1.50
2018-07-07T13:13:55.221Z,1.60
2018-07-07T13:16:00.584Z,1.10
2018-07-07T13:18:06.094Z,1.10
2018-07-07T13:20:14.529Z,1.33
2018-07-07T13:22:21.772Z,1.67
2018-07-07T13:26:40.291Z,1.27
2018-07-07T13:28:45.294Z,1.77
2018-07-07T13:30:50.300Z,1.10
2018-07-07T13:32:55.419Z,1.60
2018-07-07T13:35:00.426Z,1.60
2018-07-07T13:37:05.633Z,1.60
2018-07-07T13:39:13.955Z,1.60
2018-07-07T13:41:18.944Z,1.20
2018-07-07T13:43:25.031Z,1.20
2018-07-07T13:45:30.710Z,1.63
2018-07-07T13:47:37.068Z,1.17
2018-07-07T13:49:43.597Z,1.27
2018-07-07T13:51:48.587Z,1.50
2018-07-07T13:53:53.944Z,1.53
2018-07-07T13:55:59.001Z,1.47
2018-07-07T13:58:04.047Z,1.47
2018-07-07T14:00:11.414Z,1.87
2018-07-07T14:02:16.359Z,1.67
2018-07-07T14:04:21.162Z,1.83
2018-07-07T14:06:26.494Z,0.90
2018-07-07T14:08:32.851Z,1.40
2018-07-07T14:10:38.543Z,1.30
2018-07-07T14:12:43.861Z,1.50
2018-07-07T14:14:48.870Z,1.23
2018-07-07T14:16:54.007Z,1.20
2018-07-07T14:18:59.177Z,1.83
2018-07-07T14:21:04.231Z,1.20
2018-07-07T14:23:09.681Z,2.00
2018-07-07T14:25:14.773Z,1.50
2018-07-07T14:27:20.098Z,1.30
2018-07-07T14:29:25.090Z,0.97
2018-07-07T14:31:30.389Z,1.13
2018-07-07T14:33:35.448Z,1.10
2018-07-07T14:35:40.456Z,1.13
2018-07-07T14:37:45.984Z,1.10
2018-07-07T14:40:00.284Z,1.30
2018-07-07T14:42:45.175Z,1.37
2018-07-07T14:44:50.344Z,1.30
2018-07-07T14:46:55.393Z,1.10
2018-07-07T14:49:00.552Z,0.73
2018-07-07T14:51:09.181Z,1.43
2018-07-07T14:53:14.432Z,1.53
2018-07-07T14:55:21.727Z,1.03
2018-07-07T14:57:27.757Z,1.10
2018-07-07T14:59:33.640Z,1.00
2018-07-07T15:01:39.076Z,1.23
2018-07-07T15:03:44.536Z,1.37
2018-07-07T15:05:49.917Z,1.60
2018-07-07T15:07:55.145Z,1.10
2018-07-07T15:10:00.173Z,1.50
2018-07-07T15:12:05.452Z,1.37
2018-07-07T15:14:10.857Z,1.03
2018-07-07T15:16:16.879Z,1.10
2018-07-07T15:18:22.400Z,0.90
2018-07-07T15:20:28.893Z,1.47
2018-07-07T15:22:34.244Z,1.37
2018-07-07T15:24:39.511Z,1.30
2018-07-07T15:26:44.698Z,1.43
2018-07-07T15:28:49.857Z,1.17
2018-07-07T15:30:55.716Z,1.23
2018-07-07T15:33:04.116Z,1.97
2018-07-07T15:35:10.083Z,1.10
2018-07-07T15:37:15.334Z,0.93
2018-07-07T15:39:20.630Z,1.27
2018-07-07T15:41:26.309Z,1.50
2018-07-07T15:43:31.567Z,1.40
2018-07-07T15:45:37.313Z,1.00
2018-07-07T15:47:42.654Z,1.30
2018-07-07T15:49:47.871Z,1.37
2018-07-07T15:51:53.077Z,1.43
2018-07-07T15:53:58.727Z,1.80
2018-07-07T15:56:04.106Z,1.30
2018-07-07T15:58:09.539Z,2.23
2018-07-07T16:00:14.854Z,1.60
2018-07-07T16:02:20.302Z,1.33
2018-07-07T16:04:26.748Z,1.20
2018-07-07T16:06:32.102Z,1.80
2018-07-07T16:08:37.151Z,1.10
2018-07-07T16:10:42.467Z,1.57
2018-07-07T16:12:47.584Z,1.30
2018-07-07T16:14:53.524Z,1.00
2018-07-07T16:16:58.811Z,1.17
2018-07-07T16:19:03.956Z,1.40
2018-07-07T16:21:09.440Z,1.40
2018-07-07T16:23:15.516Z,2.60
2018-07-07T16:25:21.013Z,1.37
2018-07-07T16:27:26.099Z,1.07
2018-07-07T16:29:31.677Z,1.30
2018-07-07T16:31:37.347Z,1.90
2018-07-07T16:33:42.482Z,1.73
2018-07-07T16:35:48.188Z,2.43
2018-07-07T16:37:53.733Z,1.07
2018-07-07T16:39:58.873Z,1.43
2018-07-07T16:42:04.441Z,1.50
2018-07-07T16:44:09.847Z,2.03
2018-07-07T16:46:15.721Z,1.70
2018-07-07T16:48:21.210Z,1.70
2018-07-07T16:52:32.146Z,1.30
2018-07-07T16:54:38.215Z,1.60
2018-07-07T16:56:43.489Z,1.60
2018-07-07T16:58:49.050Z,1.40
2018-07-07T17:00:54.129Z,1.60
2018-07-07T17:03:00.120Z,1.10
2018-07-07T17:05:06.864Z,1.20
2018-07-07T17:07:14.782Z,1.07
2018-07-07T17:09:20.445Z,1.10
2018-07-07T17:11:26.233Z,1.33
2018-07-07T17:13:33.603Z,1.00
2018-07-07T17:15:40.450Z,1.27
2018-07-07T17:17:46.059Z,1.20
2018-07-07T17:19:52.121Z,1.00
2018-07-07T17:21:57.440Z,0.97
2018-07-07T17:24:03.221Z,1.47
2018-07-07T17:26:08.698Z,1.40
2018-07-07T17:28:14.500Z,1.50
2018-07-07T17:30:21.340Z,1.30
2018-07-07T17:32:26.544Z,1.17
2018-07-07T17:34:31.948Z,0.90
2018-07-07T17:36:37.317Z,1.27
2018-07-07T17:38:42.423Z,1.70
2018-07-07T17:40:47.779Z,1.50
2018-07-07T17:42:53.340Z,1.37
2018-07-07T17:44:59.652Z,1.70
2018-07-07T17:47:04.926Z,1.47
2018-07-07T17:49:10.328Z,1.80
2018-07-07T17:51:15.946Z,1.00
2018-07-07T17:53:22.250Z,1.07
2018-07-07T17:55:28.004Z,1.37
2018-07-07T17:57:33.486Z,1.77
2018-07-07T17:59:39.834Z,1.17
2018-07-07T18:01:45.430Z,2.50
2018-07-07T18:03:51.649Z,1.90
2018-07-07T18:05:56.969Z,1.70
2018-07-07T18:08:04.419Z,1.70
2018-07-07T18:10:10.866Z,2.10
2018-07-07T18:12:28.963Z,2.57
2018-07-07T18:14:35.117Z,1.40
2018-07-07T18:16:40.874Z,1.90
2018-07-07T18:18:47.799Z,1.03
2018-07-07T18:20:54.049Z,1.37
2018-07-07T18:22:59.742Z,1.33
2018-07-07T18:25:05.653Z,1.10
2018-07-07T18:27:11.198Z,1.20
2018-07-07T18:29:16.644Z,1.13
2018-07-07T18:31:22.663Z,1.17
2018-07-07T18:33:32.139Z,0.77
2018-07-07T18:35:40.499Z,1.10
2018-07-07T18:37:45.835Z,1.10
2018-07-07T18:39:50.914Z,1.20
2018-07-07T18:41:56.011Z,1.40
2018-07-07T18:44:04.992Z,1.10
2018-07-07T18:46:13.165Z,1.40
2018-07-07T18:48:19.627Z,1.50
2018-07-07T18:50:24.892Z,1.70
2018-07-07T18:52:31.349Z,1.33
2018-07-07T18:54:36.544Z,1.40
2018-07-07T18:56:44.016Z,1.53
2018-07-07T18:58:50.761Z,1.63
2018-07-07T19:00:56.185Z,1.53
2018-07-07T19:03:01.360Z,2.10
2018-07-07T19:05:06.716Z,1.63
2018-07-07T19:07:15.946Z,1.30
2018-07-07T19:09:21.406Z,1.43
2018-07-07T19:11:27.234Z,1.03
2018-07-07T19:13:32.914Z,1.20
2018-07-07T19:15:40.325Z,0.70
2018-07-07T19:17:46.416Z,1.53
2018-07-07T19:19:52.686Z,1.30
2018-07-07T19:22:03.249Z,0.70
2018-07-07T19:24:13.728Z,1.63
2018-07-07T19:26:23.971Z,1.50
2018-07-07T19:28:29.972Z,0.90
2018-07-07T19:30:35.365Z,1.40
2018-07-07T19:32:45.942Z,1.17
2018-07-07T19:34:56.184Z,1.33
2018-07-07T19:37:06.591Z,1.30
2018-07-07T19:39:11.878Z,1.30
2018-07-07T19:41:17.253Z,1.03
2018-07-07T19:43:23.782Z,1.47
2018-07-07T19:45:29.057Z,1.50
2018-07-07T19:47:36.565Z,1.20
2018-07-07T19:49:43.327Z,1.53
2018-07-07T19:51:48.319Z,0.80
2018-07-07T19:53:54.421Z,1.13
2018-07-07T19:56:00.444Z,1.60
2018-07-07T19:58:06.664Z,1.00
2018-07-07T20:00:12.049Z,1.23
2018-07-07T20:02:17.215Z,1.20
2018-07-07T20:04:22.668Z,1.70
2018-07-07T20:06:28.335Z,1.57
2018-07-07T20:08:34.066Z,1.43
2018-07-07T20:10:39.355Z,1.30
2018-07-07T20:12:46.470Z,1.07
2018-07-07T20:14:52.531Z,1.07
2018-07-07T20:17:08.288Z,1.40
2018-07-07T20:19:18.111Z,1.50
2018-07-07T20:21:45.093Z,1.13
2018-07-07T20:24:04.698Z,1.37
2018-07-07T20:26:10.001Z,1.40
2018-07-07T20:28:21.872Z,1.33
2018-07-07T20:30:29.180Z,1.40
2018-07-07T20:32:39.499Z,1.30
2018-07-07T20:34:46.473Z,1.03
2018-07-07T20:36:53.679Z,0.83
2018-07-07T20:38:59.005Z,1.27
2018-07-07T20:41:05.436Z,0.90
2018-07-07T20:43:12.298Z,1.80
2018-07-07T20:45:18.466Z,1.40
2018-07-07T20:47:24.391Z,2.07
2018-07-07T20:49:40.628Z,1.40
2018-07-07T20:51:46.034Z,1.33
2018-07-07T20:53:54.280Z,1.50
2018-07-07T20:55:59.368Z,1.43
2018-07-07T20:58:05.287Z,1.43
2018-07-07T21:00:13.177Z,1.30
2018-07-07T21:02:18.484Z,1.40
2018-07-07T21:04:23.568Z,1.43
2018-07-07T21:06:32.199Z,1.10
2018-07-07T21:08:39.262Z,1.10
2018-07-07T21:10:45.079Z,1.00
2018-07-07T21:12:50.538Z,1.67
2018-07-07T21:14:56.947Z,1.10
2018-07-07T21:17:02.476Z,1.70
2018-07-07T21:19:07.722Z,1.20
2018-07-07T21:21:12.775Z,1.30
2018-07-07T21:23:17.958Z,1.10
2018-07-07T21:25:23.105Z,1.60
2018-07-07T21:27:28.587Z,1.53
2018-07-07T21:29:34.686Z,1.10
2018-07-07T21:31:39.856Z,1.50
2018-07-07T21:33:45.466Z,1.60
2018-07-07T21:35:52.057Z,1.93
2018-07-07T21:37:58.488Z,1.30
2018-07-07T21:40:03.765Z,0.97
2018-07-07T21:42:09.015Z,1.40
2018-07-07T21:44:14.494Z,1.33
2018-07-07T21:46:19.690Z,1.10
2018-07-07T21:48:24.928Z,1.30
2018-07-07T21:50:29.916Z,1.20
2018-07-07T21:52:35.188Z,1.17
2018-07-07T21:54:40.430Z,1.50
2018-07-07T21:56:45.486Z,0.83
2018-07-07T21:58:54.486Z,1.37
2018-07-07T22:01:15.757Z,1.00
2018-07-07T22:03:25.822Z,1.17
2018-07-07T22:05:32.281Z,1.63
2018-07-07T22:07:42.186Z,1.97
2018-07-07T22:09:47.084Z,2.37
2018-07-07T22:11:52.229Z,1.97
2018-07-07T22:13:57.260Z,1.80
2018-07-07T22:16:02.355Z,1.23
2018-07-07T22:18:07.593Z,1.40
2018-07-07T22:20:12.619Z,1.67
2018-07-07T22:22:18.991Z,1.30
2018-07-07T22:24:24.454Z,1.77
2018-07-07T22:26:30.363Z,1.90
2018-07-07T22:28:36.285Z,1.70
2018-07-07T22:30:42.604Z,1.40
2018-07-07T22:32:47.780Z,1.90
2018-07-07T22:34:53.182Z,1.63
2018-07-07T22:36:58.383Z,1.33
2018-07-07T22:39:03.791Z,1.00
2018-07-07T22:41:09.459Z,0.90
2018-07-07T22:43:14.942Z,1.53
2018-07-07T22:45:20.226Z,1.03
2018-07-07T22:47:25.777Z,1.40
2018-07-07T22:49:32.153Z,1.87
2018-07-07T22:51:38.235Z,1.63
2018-07-07T22:53:44.323Z,1.30
2018-07-07T22:55:49.620Z,1.50
2018-07-07T22:57:54.573Z,1.37
2018-07-07T22:59:59.602Z,1.53
2018-07-07T23:02:04.694Z,1.57
2018-07-07T23:04:09.885Z,1.20
2018-07-07T23:06:14.869Z,1.47
2018-07-07T23:08:20.312Z,1.43
2018-07-07T23:10:25.791Z,1.70
2018-07-07T23:12:30.990Z,2.10
2018-07-07T23:14:36.385Z,1.30
2018-07-07T23:16:41.379Z,1.87
2018-07-07T23:18:46.410Z,1.70
2018-07-07T23:20:51.904Z,1.83
2018-07-07T23:22:57.093Z,1.60
2018-07-07T23:25:02.391Z,1.43
2018-07-07T23:27:07.684Z,1.40
2018-07-07T23:29:12.547Z,1.63
2018-07-07T23:31:17.579Z,1.60
2018-07-07T23:33:22.533Z,1.70
2018-07-07T23:35:27.421Z,1.83
2018-07-07T23:37:32.303Z,2.40
2018-07-07T23:39:44.467Z,1.73
2018-07-07T23:41:49.801Z,1.50
2018-07-07T23:43:54.892Z,1.30
2018-07-07T23:46:00.073Z,1.80
2018-07-07T23:48:05.276Z,2.50
2018-07-07T23:50:10.604Z,1.13
2018-07-07T23:52:15.717Z,1.30
2018-07-07T23:54:20.957Z,1.90
2018-07-07T23:56:27.313Z,1.20
2018-07-07T23:58:32.490Z,2.00
